Time;durP1;ratioP1;P1;durP2;ratioP2;P2;SDS_P1;SDS_P2;PMS_P1;PMS_P2;Temp;Humidity;BMP_temperature;BMP_pressure;BME280_temperature;BME280_humidity;BME280_pressure;Samples;Min_cycle;Max_cycle;Signal;HPM_P1;HPM_P2
2022/10/08 00:00:51;;;;;;;28.10;26.50;;;;;;;15.27;57.75;101527.41;5005993;28;20573;-75
2022/10/08 00:03:18;;;;;;;27.58;25.38;;;;;;;15.26;57.88;101525.78;5007657;28;20480;-75
2022/10/08 00:05:55;;;;;;;27.73;26.00;;;;;;;15.26;58.17;101528.50;5008423;28;20541;-74
2022/10/08 00:08:20;;;;;;;27.42;25.42;;;;;;;15.25;57.88;101524.97;5009300;28;20070;-75
2022/10/08 00:10:52;;;;;;;29.65;27.73;;;;;;;15.24;57.91;101526.03;5006031;28;20081;-74
2022/10/08 00:13:17;;;;;;;27.63;25.92;;;;;;;15.25;58.04;101532.31;5011187;28;20034;-74
2022/10/08 00:15:43;;;;;;;28.60;26.73;;;;;;;15.24;57.91;101530.66;5010010;28;20069;-74
2022/10/08 00:18:08;;;;;;;28.80;26.52;;;;;;;15.23;58.09;101532.56;4989133;28;20100;-75
2022/10/08 00:20:34;;;;;;;28.83;26.77;;;;;;;15.24;57.92;101536.91;5002591;28;20064;-75
2022/10/08 00:23:00;;;;;;;28.08;26.33;;;;;;;15.24;58.00;101541.53;5007473;28;20045;-74
2022/10/08 00:25:26;;;;;;;26.90;25.20;;;;;;;15.24;58.01;101541.53;4989577;28;20046;-75
2022/10/08 00:27:52;;;;;;;27.17;25.70;;;;;;;15.22;57.95;101541.81;4997773;28;20626;-75
2022/10/08 00:30:17;;;;;;;27.08;25.38;;;;;;;15.22;57.95;101543.69;5002957;28;20054;-76
2022/10/08 00:32:43;;;;;;;28.98;26.92;;;;;;;15.22;58.01;101551.84;4986963;28;20387;-75
2022/10/08 00:35:09;;;;;;;28.33;26.17;;;;;;;15.21;57.89;101542.88;4993919;28;20034;-74
2022/10/08 00:37:34;;;;;;;28.85;27.13;;;;;;;15.20;58.08;101546.69;4985224;28;20058;-75
2022/10/08 00:40:00;;;;;;;27.52;25.63;;;;;;;15.21;58.00;101556.50;4987701;28;20037;-74
2022/10/08 00:42:25;;;;;;;28.60;26.90;;;;;;;15.20;58.29;101554.03;5003633;28;20137;-75
2022/10/08 00:44:54;;;;;;;26.55;25.05;;;;;;;15.19;57.95;101566.78;5007706;28;20069;-75
2022/10/08 00:47:23;;;;;;;27.60;25.73;;;;;;;15.20;58.06;101589.41;5010357;28;20478;-75
2022/10/08 00:49:52;;;;;;;27.85;26.23;;;;;;;15.20;58.10;101592.13;5006615;28;20075;-75
2022/10/08 00:52:18;;;;;;;27.75;25.73;;;;;;;15.18;58.36;101586.94;5005102;28;20042;-75
2022/10/08 00:54:45;;;;;;;29.17;26.98;;;;;;;15.18;58.32;101592.38;5006108;28;20045;-75
2022/10/08 00:57:11;;;;;;;26.60;24.60;;;;;;;15.18;58.49;101589.66;4992402;28;20030;-74
2022/10/08 00:59:37;;;;;;;27.95;26.05;;;;;;;15.19;58.56;101571.44;5004545;28;20045;-74
2022/10/08 01:02:07;;;;;;;27.25;25.45;;;;;;;15.18;58.56;101565.16;5003375;28;20034;-75
2022/10/08 01:04:32;;;;;;;28.20;26.42;;;;;;;15.19;58.69;101572.25;5004615;28;20070;-74
2022/10/08 01:07:14;;;;;;;27.00;24.98;;;;;;;15.17;58.82;101565.41;5007579;28;20080;-74
2022/10/08 01:10:04;;;;;;;28.98;27.17;;;;;;;15.17;58.49;101576.28;5002504;28;20117;-75
2022/10/08 01:12:51;;;;;;;27.80;25.90;;;;;;;15.15;58.93;101577.38;5005334;28;20084;-75
2022/10/08 01:15:30;;;;;;;26.00;24.42;;;;;;;15.14;58.49;101570.31;5005164;28;20050;-74
2022/10/08 01:18:20;;;;;;;27.52;25.92;;;;;;;15.14;58.76;101570.31;5005145;28;20034;-77
2022/10/08 01:20:55;;;;;;;28.50;26.80;;;;;;;15.15;58.78;101569.22;5001933;28;20041;-75
2022/10/08 01:23:48;;;;;;;26.38;24.83;;;;;;;15.14;58.66;101561.28;5002708;28;20501;-75
2022/10/08 01:26:35;;;;;;;28.02;26.40;;;;;;;15.15;58.98;101562.94;5004229;28;20053;-77
2022/10/08 01:29:28;;;;;;;27.70;25.98;;;;;;;15.13;58.98;101563.19;5001209;28;20356;-74
2022/10/08 01:32:02;;;;;;;27.60;25.95;;;;;;;15.14;58.76;101561.28;4998338;28;20065;-73
2022/10/08 01:35:02;;;;;;;27.10;25.42;;;;;;;15.12;59.04;101564.28;5004103;28;20027;-73
2022/10/08 01:37:37;;;;;;;27.80;26.05;;;;;;;15.12;58.84;101564.28;4971010;28;20544;-74
2022/10/08 01:40:11;;;;;;;26.67;24.67;;;;;;;15.13;59.07;101578.72;5006225;28;20029;-75
2022/10/08 01:42:39;;;;;;;27.90;26.20;;;;;;;15.12;58.95;101582.53;5000774;28;20113;-74
2022/10/08 01:45:11;;;;;;;27.05;25.20;;;;;;;15.12;58.97;101568.91;5007741;28;20363;-74
2022/10/08 01:47:42;;;;;;;26.77;24.90;;;;;;;15.12;59.04;101568.91;5006638;28;20034;-75
2022/10/08 01:50:17;;;;;;;28.17;26.48;;;;;;;15.11;59.19;101572.69;5005749;28;20041;-75
2022/10/08 01:52:49;;;;;;;27.98;26.35;;;;;;;15.11;59.04;101569.97;5004037;28;20031;-75
2022/10/08 01:55:24;;;;;;;26.83;25.13;;;;;;;15.11;59.12;101575.41;5006712;28;20034;-75
2022/10/08 01:57:51;;;;;;;27.30;25.63;;;;;;;15.10;59.27;101577.31;4996793;28;20451;-75
2022/10/08 02:00:17;;;;;;;27.23;25.63;;;;;;;15.10;59.49;101568.34;5004059;28;20034;-76
2022/10/08 02:02:43;;;;;;;27.40;25.85;;;;;;;15.10;59.26;101571.88;4990775;28;20045;-75
2022/10/08 02:05:10;;;;;;;25.88;24.20;;;;;;;15.10;59.45;101580.03;5001391;28;20209;-75
2022/10/08 02:07:40;;;;;;;25.60;23.98;;;;;;;15.10;59.29;101574.59;5005929;28;20037;-75
2022/10/08 02:10:13;;;;;;;27.42;25.95;;;;;;;15.09;59.35;101581.13;5006765;28;20492;-75
2022/10/08 02:12:40;;;;;;;26.52;24.88;;;;;;;15.09;59.37;101580.28;5004613;28;20034;-75
2022/10/08 02:15:27;;;;;;;26.45;24.95;;;;;;;15.09;59.34;101588.44;5006289;28;20026;-75
2022/10/08 02:17:56;;;;;;;26.48;24.98;;;;;;;15.08;59.34;101587.63;4999468;28;20053;-75
2022/10/08 02:20:36;;;;;;;25.33;24.02;;;;;;;15.08;59.26;101587.63;5005858;28;20026;-75
2022/10/08 02:23:09;;;;;;;27.08;25.58;;;;;;;15.07;59.64;101585.16;5005717;28;20046;-75
2022/10/08 02:25:54;;;;;;;26.33;24.83;;;;;;;15.06;59.67;101584.31;5005592;28;20029;-76
2022/10/08 02:28:30;;;;;;;26.13;24.40;;;;;;;15.06;59.27;101587.03;5001810;28;20057;-74
2022/10/08 02:31:03;;;;;;;27.58;26.00;;;;;;;15.06;59.43;101586.22;5003603;28;20046;-75
2022/10/08 02:33:54;;;;;;;26.20;24.63;;;;;;;15.05;59.89;101585.41;5004911;28;20109;-74
2022/10/08 02:36:27;;;;;;;25.95;24.45;;;;;;;15.04;59.63;101586.47;5001954;28;20117;-75
2022/10/08 02:38:56;;;;;;;27.70;25.85;;;;;;;15.04;59.72;101578.31;5004298;28;20105;-75
2022/10/08 02:41:32;;;;;;;25.85;24.45;;;;;;;15.04;59.35;101574.78;5006564;28;20037;-74
2022/10/08 02:44:04;;;;;;;25.98;24.58;;;;;;;15.03;59.64;101567.69;5004689;28;20462;-74
2022/10/08 02:46:36;;;;;;;26.45;24.92;;;;;;;15.03;59.42;101570.41;5006346;28;20452;-74
2022/10/08 02:49:06;;;;;;;27.13;25.50;;;;;;;15.02;59.82;101574.19;5007135;28;20041;-75
2022/10/08 02:51:37;;;;;;;25.75;24.35;;;;;;;15.01;59.60;101573.38;5003101;28;20061;-76
2022/10/08 02:54:05;;;;;;;25.92;24.52;;;;;;;15.02;59.77;101571.47;5005504;28;20449;-75
2022/10/08 02:56:37;;;;;;;24.30;23.00;;;;;;;15.01;59.64;101572.56;5002020;28;20516;-75
2022/10/08 02:59:03;;;;;;;28.85;26.92;;;;;;;15.00;59.68;101568.22;5006552;28;20032;-75
2022/10/08 03:01:38;;;;;;;27.25;25.75;;;;;;;15.00;60.06;101566.31;4998009;28;20378;-75
2022/10/08 03:04:09;;;;;;;27.95;26.42;;;;;;;14.99;59.92;101570.06;5005175;28;20026;-75
2022/10/08 03:06:35;;;;;;;26.17;24.67;;;;;;;14.99;59.80;101570.06;5006236;28;20504;-75
2022/10/08 03:09:02;;;;;;;27.83;26.08;;;;;;;14.98;59.69;101570.34;5005761;28;20026;-75
2022/10/08 03:11:29;;;;;;;26.58;25.08;;;;;;;14.99;59.76;101569.25;5001906;28;20524;-74
2022/10/08 03:13:57;;;;;;;26.70;25.30;;;;;;;14.99;59.76;101591.03;5004048;28;20084;-75
2022/10/08 03:16:31;;;;;;;26.50;24.93;;;;;;;14.98;59.62;101578.50;5005925;28;20033;-75
2022/10/08 03:18:58;;;;;;;28.73;26.92;;;;;;;14.97;60.04;101587.72;5006401;28;20288;-75
2022/10/08 03:21:26;;;;;;;26.15;24.73;;;;;;;14.97;59.75;101590.44;4998104;28;20046;-75
2022/10/08 03:23:52;;;;;;;28.00;26.40;;;;;;;14.96;59.64;101594.25;5001787;28;20037;-75
2022/10/08 03:26:18;;;;;;;26.30;24.90;;;;;;;14.95;60.03;101598.88;5005696;28;20042;-75
2022/10/08 03:28:43;;;;;;;27.30;25.80;;;;;;;14.95;59.54;101607.03;5008297;28;20037;-75
2022/10/08 03:31:09;;;;;;;25.30;24.00;;;;;;;14.95;59.80;101604.31;4990639;28;20076;-74
2022/10/08 03:33:34;;;;;;;26.60;25.10;;;;;;;14.95;59.68;101611.66;5002107;28;20516;-74
2022/10/08 03:36:00;;;;;;;28.80;27.00;;;;;;;14.95;59.74;101611.66;5000777;28;20148;-75
2022/10/08 03:38:26;;;;;;;27.10;25.50;;;;;;;14.92;59.55;101610.28;5004528;28;20026;-74
2022/10/08 03:40:56;;;;;;;26.20;24.50;;;;;;;14.92;59.85;101615.72;5003570;28;20604;-74
2022/10/08 03:43:21;;;;;;;25.70;24.30;;;;;;;14.91;59.83;101620.31;5005089;28;20038;-74
2022/10/08 03:45:51;;;;;;;27.35;25.65;;;;;;;14.91;59.72;101617.59;5005026;28;20358;-75
2022/10/08 03:48:18;;;;;;;26.02;24.17;;;;;;;14.90;60.00;101620.56;4991160;28;20042;-74
2022/10/08 03:50:55;;;;;;;27.33;25.40;;;;;;;14.90;59.95;101623.28;5003952;28;20030;-75
2022/10/08 03:53:22;;;;;;;27.27;25.48;;;;;;;14.89;59.85;101622.47;5004777;28;20366;-74
2022/10/08 03:55:48;;;;;;;27.17;25.65;;;;;;;14.90;59.87;101626.00;5007654;28;20454;-75
2022/10/08 03:58:13;;;;;;;26.90;25.15;;;;;;;14.89;60.13;101635.22;5002046;28;20052;-74
2022/10/08 04:00:39;;;;;;;27.02;25.50;;;;;;;14.89;59.95;101627.06;5003823;28;20152;-76
2022/10/08 04:03:05;;;;;;;30.63;28.27;;;;;;;14.88;59.81;101630.88;5003433;28;20066;-74
2022/10/08 04:05:30;;;;;;;27.95;26.13;;;;;;;14.88;60.22;101630.88;5004754;28;20078;-74
2022/10/08 04:07:55;;;;;;;30.13;28.20;;;;;;;14.88;60.17;101630.88;5001913;28;20060;-75
2022/10/08 04:10:21;;;;;;;28.20;26.20;;;;;;;14.86;59.90;101625.66;5001723;28;20088;-77
2022/10/08 04:12:46;;;;;;;31.20;28.85;;;;;;;14.87;60.11;101631.97;5000213;28;20037;-75
2022/10/08 04:15:12;;;;;;;30.77;28.27;;;;;;;14.86;60.13;101636.56;5005035;28;20096;-74
2022/10/08 04:17:37;;;;;;;30.90;28.88;;;;;;;14.86;60.18;101642.00;5007397;28;20462;-75
2022/10/08 04:20:02;;;;;;;33.63;30.90;;;;;;;14.86;60.41;101638.44;4989813;28;20410;-75
2022/10/08 04:22:28;;;;;;;30.75;28.45;;;;;;;14.85;60.21;101642.25;5001696;28;20037;-75
2022/10/08 04:24:53;;;;;;;32.88;29.88;;;;;;;14.84;60.05;101646.88;5002793;28;20097;-75
2022/10/08 04:27:19;;;;;;;32.92;30.27;;;;;;;14.84;60.20;101641.44;5003951;28;20129;-74
2022/10/08 04:29:44;;;;;;;31.52;28.63;;;;;;;14.85;60.60;101650.41;5005977;28;20485;-75
2022/10/08 04:32:09;;;;;;;38.50;34.72;;;;;;;14.84;60.02;101648.75;5007668;28;20046;-75
2022/10/08 04:34:35;;;;;;;36.17;32.85;;;;;;;14.85;60.19;101650.41;5006723;28;20406;-75
2022/10/08 04:37:00;;;;;;;35.28;32.17;;;;;;;14.83;60.49;101658.81;5003877;28;20030;-74
2022/10/08 04:39:29;;;;;;;32.35;29.85;;;;;;;14.83;60.27;101658.00;5004404;28;20034;-74
2022/10/08 04:41:54;;;;;;;36.45;33.13;;;;;;;14.83;60.49;101650.66;5010515;28;20041;-75
2022/10/08 04:44:19;;;;;;;32.60;29.83;;;;;;;14.82;60.31;101650.94;5004804;28;20540;-75
2022/10/08 04:46:45;;;;;;;31.58;29.20;;;;;;;14.82;60.43;101661.81;5005036;28;20026;-75
2022/10/08 04:49:10;;;;;;;32.95;30.48;;;;;;;14.81;60.50;101652.78;5008556;28;20096;-74
2022/10/08 04:51:36;;;;;;;33.47;30.63;;;;;;;14.82;60.49;101667.25;5007537;28;20081;-75
2022/10/08 04:54:02;;;;;;;34.88;31.63;;;;;;;14.81;60.52;101660.13;5005853;28;20041;-75
2022/10/08 04:56:30;;;;;;;35.83;32.20;;;;;;;14.80;60.63;101674.81;5004188;28;20038;-75
2022/10/08 04:58:57;;;;;;;36.13;33.00;;;;;;;14.80;60.36;101672.91;5003102;28;20025;-74
2022/10/08 05:01:23;;;;;;;30.92;28.35;;;;;;;14.79;60.37;101668.56;5008063;28;20027;-73
2022/10/08 05:03:51;;;;;;;33.97;31.02;;;;;;;14.79;60.66;101679.44;5008921;28;20036;-74
2022/10/08 05:06:20;;;;;;;36.00;32.83;;;;;;;14.79;60.47;101673.16;5003783;28;20037;-74
2022/10/08 05:08:46;;;;;;;32.92;30.17;;;;;;;14.79;60.71;101682.16;4998979;28;20026;-75
2022/10/08 05:11:12;;;;;;;35.40;32.70;;;;;;;14.79;60.48;101686.75;5005119;28;20117;-74
2022/10/08 05:13:38;;;;;;;32.63;29.98;;;;;;;14.79;60.55;101694.91;5008741;28;20098;-74
2022/10/08 05:16:09;;;;;;;36.13;32.90;;;;;;;14.79;60.76;101694.91;5008916;28;20034;-74
2022/10/08 05:18:36;;;;;;;32.45;29.83;;;;;;;14.79;60.45;101692.19;5006575;28;20029;-74
2022/10/08 05:21:13;;;;;;;35.47;32.03;;;;;;;14.77;60.48;101692.47;5007461;28;20108;-74
2022/10/08 05:23:41;;;;;;;37.42;33.63;;;;;;;14.78;60.52;101694.09;5010761;28;20029;-74
2022/10/08 05:26:15;;;;;;;33.72;30.63;;;;;;;14.77;60.85;101708.78;5005471;28;20137;-74
2022/10/08 05:28:42;;;;;;;35.50;32.80;;;;;;;14.76;60.53;101709.84;5007080;28;20113;-74
2022/10/08 05:31:07;;;;;;;33.55;30.67;;;;;;;14.76;60.55;101696.22;5006978;28;20049;-74
2022/10/08 05:33:34;;;;;;;35.25;32.15;;;;;;;14.77;60.69;101716.13;5003262;28;20044;-74
2022/10/08 05:36:05;;;;;;;37.75;34.35;;;;;;;14.76;60.93;101707.13;5008703;28;20029;-74
2022/10/08 05:38:31;;;;;;;34.83;31.63;;;;;;;14.76;60.74;101714.44;5000752;28;20100;-74
2022/10/08 05:41:11;;;;;;;33.22;30.67;;;;;;;14.75;60.58;101712.81;5004323;28;20033;-74
2022/10/08 05:43:36;;;;;;;33.50;30.40;;;;;;;14.75;60.58;101720.97;5006950;28;20096;-74
2022/10/08 05:46:02;;;;;;;34.80;31.38;;;;;;;14.74;60.78;101722.88;5006725;28;20482;-75
2022/10/08 05:48:27;;;;;;;32.60;29.65;;;;;;;14.74;60.84;101724.75;5004583;28;20076;-76
2022/10/08 05:50:53;;;;;;;30.98;28.65;;;;;;;14.74;60.61;101719.31;4998548;28;20076;-74
2022/10/08 05:53:18;;;;;;;35.47;32.10;;;;;;;14.73;60.63;101737.53;5003478;28;20031;-74
2022/10/08 05:55:43;;;;;;;31.48;28.70;;;;;;;14.73;60.82;101742.16;5006063;28;20032;-74
2022/10/08 05:58:09;;;;;;;32.08;29.60;;;;;;;14.71;60.68;101735.03;5002069;28;20930;-75
2022/10/08 06:00:34;;;;;;;31.98;29.20;;;;;;;14.71;60.47;101745.91;5008123;28;20048;-75
2022/10/08 06:02:59;;;;;;;31.73;28.75;;;;;;;14.71;60.58;101745.91;5000101;28;20402;-74
2022/10/08 06:05:25;;;;;;;33.95;31.23;;;;;;;14.71;60.71;101745.91;5006401;28;20034;-74
2022/10/08 06:07:51;;;;;;;34.40;31.02;;;;;;;14.71;60.72;101755.97;5004039;28;20038;-74
2022/10/08 06:10:17;;;;;;;30.83;28.38;;;;;;;14.70;60.69;101763.31;5002717;28;20046;-73
2022/10/08 06:12:43;;;;;;;33.42;30.45;;;;;;;14.69;60.58;101769.84;5005023;28;20044;-74
2022/10/08 06:15:08;;;;;;;33.40;30.75;;;;;;;14.69;60.50;101772.56;5004486;28;20065;-73
2022/10/08 06:17:34;;;;;;;33.83;31.15;;;;;;;14.69;60.97;101766.28;5003481;28;20034;-74
2022/10/08 06:19:59;;;;;;;31.08;28.80;;;;;;;14.67;60.90;101768.44;5002901;28;20034;-74
2022/10/08 06:22:25;;;;;;;30.08;27.88;;;;;;;14.67;60.63;101776.59;4973144;28;20462;-73
2022/10/08 06:24:50;;;;;;;31.35;28.75;;;;;;;14.67;60.68;101785.56;5000840;28;20036;-73
2022/10/08 06:27:15;;;;;;;33.45;30.77;;;;;;;14.66;60.79;101792.06;5007040;28;20022;-74
2022/10/08 06:29:41;;;;;;;31.58;28.85;;;;;;;14.65;60.70;101801.31;5000856;28;20034;-73
2022/10/08 06:32:06;;;;;;;34.50;31.10;;;;;;;14.66;61.05;101804.84;5007869;28;20034;-74
2022/10/08 06:34:31;;;;;;;29.83;27.83;;;;;;;14.66;60.85;101810.28;5001176;28;20117;-74
2022/10/08 06:36:57;;;;;;;31.08;28.85;;;;;;;14.65;60.98;101812.19;5002273;28;20036;-75
2022/10/08 06:39:22;;;;;;;29.10;26.88;;;;;;;14.64;60.92;101815.13;5003424;28;20072;-73
2022/10/08 06:41:47;;;;;;;30.33;27.88;;;;;;;14.63;60.75;101819.75;5004301;28;20347;-75
2022/10/08 06:44:14;;;;;;;31.95;29.55;;;;;;;14.63;60.80;101817.03;5006427;28;20037;-76
2022/10/08 06:46:40;;;;;;;29.23;26.98;;;;;;;14.63;60.79;101825.19;5007113;28;20458;-74
2022/10/08 06:49:06;;;;;;;31.13;28.85;;;;;;;14.63;60.78;101833.34;5004006;28;20049;-75
2022/10/08 06:51:31;;;;;;;30.02;27.73;;;;;;;14.61;60.76;101830.03;5000861;28;20161;-75
2022/10/08 06:53:58;;;;;;;30.42;28.02;;;;;;;14.61;60.78;101838.19;5005895;28;20037;-73
2022/10/08 06:56:24;;;;;;;30.15;27.85;;;;;;;14.61;60.73;101843.63;5002363;28;20099;-74
2022/10/08 06:58:51;;;;;;;31.10;28.83;;;;;;;14.61;60.66;101849.06;5007969;28;20022;-75
2022/10/08 07:01:21;;;;;;;32.38;29.58;;;;;;;14.61;60.83;101853.69;5000967;28;20427;-74
2022/10/08 07:03:52;;;;;;;29.52;27.38;;;;;;;14.60;60.78;101854.78;5008574;28;20416;-74
2022/10/08 07:06:18;;;;;;;29.83;27.60;;;;;;;14.60;60.97;101857.50;4999800;28;20056;-77
2022/10/08 07:08:43;;;;;;;29.05;26.85;;;;;;;14.59;60.76;101867.56;5002106;28;20462;-75
2022/10/08 07:11:16;;;;;;;30.55;28.27;;;;;;;14.58;60.80;101868.59;5007453;28;20080;-75
2022/10/08 07:13:42;;;;;;;28.15;26.15;;;;;;;14.58;60.65;101874.03;5001722;28;20111;-77
2022/10/08 07:16:16;;;;;;;30.58;28.13;;;;;;;14.58;60.62;101882.19;5003306;28;20092;-74
2022/10/08 07:18:41;;;;;;;28.20;26.08;;;;;;;14.57;60.61;101886.00;5004668;28;20030;-74
2022/10/08 07:21:10;;;;;;;28.23;26.08;;;;;;;14.56;60.77;101883.50;5004925;28;20030;-73
2022/10/08 07:23:35;;;;;;;27.55;25.58;;;;;;;14.56;60.71;101894.38;5006167;28;20060;-76
2022/10/08 07:26:08;;;;;;;28.13;25.80;;;;;;;14.55;60.85;101896.28;5007096;28;20463;-73
2022/10/08 07:28:36;;;;;;;28.08;26.27;;;;;;;14.55;60.67;101895.47;5005561;28;20029;-76
2022/10/08 07:31:21;;;;;;;26.77;25.08;;;;;;;14.54;60.94;101894.63;5005759;28;20152;-75
2022/10/08 07:33:46;;;;;;;27.52;25.70;;;;;;;14.54;61.01;101902.78;5007263;28;20040;-75
2022/10/08 07:36:17;;;;;;;28.45;26.30;;;;;;;14.53;60.77;101906.56;5004434;28;20468;-75
2022/10/08 07:38:43;;;;;;;26.63;25.02;;;;;;;14.53;60.88;101917.44;4997237;28;20022;-75
2022/10/08 07:41:10;;;;;;;27.55;25.63;;;;;;;14.53;60.99;101916.59;5002569;28;20053;-74
2022/10/08 07:43:39;;;;;;;25.98;24.48;;;;;;;14.52;60.64;101914.94;4999298;28;20030;-74
2022/10/08 07:46:06;;;;;;;27.02;25.25;;;;;;;14.51;60.64;101911.38;5007262;28;20148;-74
2022/10/08 07:48:31;;;;;;;28.33;26.42;;;;;;;14.51;60.86;101911.38;5000385;28;20033;-73
2022/10/08 07:51:06;;;;;;;28.58;26.45;;;;;;;14.50;61.23;101913.28;5004406;28;20049;-74
2022/10/08 07:53:33;;;;;;;26.42;24.83;;;;;;;14.50;60.84;101920.63;5006490;28;20029;-74
2022/10/08 07:55:58;;;;;;;25.75;23.98;;;;;;;14.50;61.00;101923.34;5007225;28;20018;-74
2022/10/08 07:58:23;;;;;;;26.50;24.90;;;;;;;14.50;60.72;101932.31;5006803;28;20033;-74
2022/10/08 08:00:49;;;;;;;27.95;25.77;;;;;;;14.48;60.95;101929.00;5003592;28;20030;-74
2022/10/08 08:03:15;;;;;;;29.17;27.10;;;;;;;14.49;60.82;101938.81;5005346;28;20041;-74
2022/10/08 08:05:40;;;;;;;27.30;25.58;;;;;;;14.48;60.88;101934.44;5010820;28;20042;-75
2022/10/08 08:08:05;;;;;;;25.45;23.88;;;;;;;14.48;61.08;101941.78;5002886;28;20034;-75
2022/10/08 08:10:31;;;;;;;25.13;23.73;;;;;;;14.47;60.74;101949.09;5008972;28;20059;-74
2022/10/08 08:12:56;;;;;;;27.48;25.15;;;;;;;14.47;61.30;101951.00;5010897;28;20122;-75
2022/10/08 08:15:21;;;;;;;28.00;25.73;;;;;;;14.47;61.17;101961.88;5008803;28;20425;-75
2022/10/08 08:17:47;;;;;;;26.48;24.77;;;;;;;14.47;60.92;101973.56;4991229;28;20397;-74
2022/10/08 08:20:12;;;;;;;25.02;23.48;;;;;;;14.46;60.97;101969.22;4997005;28;20022;-73
2022/10/08 08:22:37;;;;;;;25.25;23.85;;;;;;;14.45;60.93;101972.97;5007075;28;20489;-73
2022/10/08 08:25:03;;;;;;;26.38;24.67;;;;;;;14.46;60.86;101976.53;5006058;28;20408;-74
2022/10/08 08:27:29;;;;;;;28.55;25.80;;;;;;;14.44;61.31;101976.78;5004852;28;20391;-75
2022/10/08 08:29:54;;;;;;;26.58;25.02;;;;;;;14.45;60.94;101980.31;5008826;28;20105;-74
2022/10/08 08:32:20;;;;;;;25.80;24.35;;;;;;;14.45;60.82;101977.59;5006337;28;20463;-74
2022/10/08 08:34:45;;;;;;;26.50;24.35;;;;;;;14.45;60.81;101988.47;5006652;28;20026;-76
2022/10/08 08:37:11;;;;;;;25.92;24.38;;;;;;;14.44;60.77;101992.28;5006754;28;20117;-77
2022/10/08 08:39:36;;;;;;;23.80;22.50;;;;;;;14.43;60.71;102005.00;5005822;28;20390;-75
2022/10/08 08:42:26;;;;;;;25.40;23.67;;;;;;;14.43;60.84;102001.47;5002336;28;20030;-73
2022/10/08 08:45:01;;;;;;;25.25;23.50;;;;;;;14.41;60.72;102009.88;5005435;28;20434;-74
2022/10/08 08:47:31;;;;;;;25.13;23.55;;;;;;;14.41;60.95;102012.59;5006496;28;20150;-75
2022/10/08 08:50:07;;;;;;;25.98;23.83;;;;;;;14.41;60.86;102012.59;5011716;28;20061;-77
2022/10/08 08:52:40;;;;;;;23.77;22.35;;;;;;;14.41;60.55;102012.59;5007924;28;20032;-75
2022/10/08 08:55:35;;;;;;;24.50;22.90;;;;;;;14.42;60.88;102013.41;5008346;28;20048;-73
2022/10/08 08:58:26;;;;;;;23.52;22.20;;;;;;;14.40;60.43;102027.25;4998817;28;20046;-74
2022/10/08 09:01:00;;;;;;;25.42;23.77;;;;;;;14.38;60.75;102012.22;4998411;28;20242;-74
2022/10/08 09:03:33;;;;;;;24.70;23.15;;;;;;;14.38;60.49;102023.09;5004690;28;20034;-77
2022/10/08 09:06:01;;;;;;;25.33;23.27;;;;;;;14.39;60.97;102027.47;5003467;28;20117;-75
2022/10/08 09:08:35;;;;;;;26.23;24.40;;;;;;;14.39;60.53;102024.75;5000406;28;20065;-76
2022/10/08 09:11:03;;;;;;;24.38;23.08;;;;;;;14.38;60.68;102021.19;5005108;28;20037;-75
2022/10/08 09:13:36;;;;;;;25.37;23.87;;;;;;;14.39;60.61;102024.75;4988903;28;20031;-74
2022/10/08 09:16:02;;;;;;;24.88;23.48;;;;;;;14.38;60.29;102025.81;5006379;28;20380;-75
2022/10/08 09:18:28;;;;;;;26.80;24.77;;;;;;;14.39;60.57;102028.31;4998942;28;20034;-74
2022/10/08 09:20:53;;;;;;;25.48;23.42;;;;;;;14.39;60.78;102024.75;5005183;28;20073;-75
2022/10/08 09:23:21;;;;;;;25.55;24.13;;;;;;;14.40;60.55;102040.00;5007988;28;20026;-75
2022/10/08 09:26:28;;;;;;;23.63;21.83;;;;;;;14.39;60.66;102044.63;5006518;28;20060;-75
2022/10/08 09:28:56;;;;;;;25.83;24.42;;;;;;;14.40;60.38;102046.25;5000741;28;20276;-76
2022/10/08 09:31:23;;;;;;;25.10;23.65;;;;;;;14.40;60.59;102048.16;4999870;28;20107;-75
2022/10/08 09:34:12;;;;;;;24.95;23.30;;;;;;;14.42;60.55;102048.75;5009013;28;20061;-75
2022/10/08 09:36:42;;;;;;;25.98;24.13;;;;;;;14.42;60.39;102059.63;5003952;28;20025;-75
2022/10/08 09:39:25;;;;;;;23.92;22.38;;;;;;;14.42;60.45;102068.59;5005988;28;20030;-76
2022/10/08 09:42:05;;;;;;;24.40;23.05;;;;;;;14.42;60.32;102068.59;5003159;28;20379;-74
2022/10/08 09:44:50;;;;;;;27.48;25.60;;;;;;;14.44;60.38;102076.53;5006841;28;20026;-75
2022/10/08 09:47:22;;;;;;;23.80;22.50;;;;;;;14.43;60.42;102070.25;5001222;28;20025;-74
2022/10/08 09:50:12;;;;;;;23.88;22.48;;;;;;;14.44;60.22;102077.38;5007743;28;20168;-75
2022/10/08 09:52:40;;;;;;;23.45;22.13;;;;;;;14.45;60.00;102076.28;5005965;28;20221;-79
2022/10/08 09:55:14;;;;;;;23.65;22.00;;;;;;;14.46;60.28;102077.09;5005991;28;20049;-73
2022/10/08 09:57:47;;;;;;;23.75;22.48;;;;;;;14.47;60.20;102086.94;5006138;28;20032;-73
2022/10/08 10:00:30;;;;;;;24.13;22.90;;;;;;;14.48;60.34;102094.84;5004906;28;20041;-72
2022/10/08 10:02:58;;;;;;;25.15;23.75;;;;;;;14.48;60.06;102094.03;5003361;28;20064;-74
2022/10/08 10:05:30;;;;;;;26.67;24.88;;;;;;;14.49;60.07;102084.81;5002963;28;20470;-74
2022/10/08 10:07:55;;;;;;;23.50;22.05;;;;;;;14.49;60.28;102098.41;5006809;28;20060;-73
2022/10/08 10:10:38;;;;;;;24.15;22.60;;;;;;;14.49;59.82;102093.78;5002440;28;20041;-75
2022/10/08 10:13:35;;;;;;;23.80;22.17;;;;;;;14.50;59.90;102089.19;5005959;28;20128;-74
2022/10/08 10:16:26;;;;;;;23.65;22.25;;;;;;;14.52;59.86;102099.84;4991173;28;20490;-75
2022/10/08 10:18:56;;;;;;;24.25;22.77;;;;;;;14.53;59.29;102102.31;5009321;28;20056;-74
2022/10/08 10:21:35;;;;;;;24.27;22.63;;;;;;;14.55;59.35;102102.94;5001785;28;20751;-70
2022/10/08 10:24:19;;;;;;;24.02;22.73;;;;;;;14.56;59.32;102103.75;5003876;28;20049;-73
2022/10/08 10:26:47;;;;;;;24.73;23.25;;;;;;;14.55;59.46;102102.94;5008215;28;20033;-75
2022/10/08 10:29:19;;;;;;;24.10;22.85;;;;;;;14.57;58.89;102108.13;5006568;28;20541;-74
2022/10/08 10:31:56;;;;;;;24.25;22.63;;;;;;;14.59;58.97;102123.16;5005488;28;20053;-74
2022/10/08 10:34:28;;;;;;;23.38;21.63;;;;;;;14.60;59.24;102115.81;5009443;28;20041;-74
2022/10/08 10:37:00;;;;;;;23.83;22.63;;;;;;;14.61;59.08;102117.47;5008175;28;20390;-73
2022/10/08 10:39:42;;;;;;;25.15;23.55;;;;;;;14.61;58.73;102112.84;5005006;28;20030;-74
2022/10/08 10:42:21;;;;;;;24.05;22.13;;;;;;;14.63;58.31;102115.34;5005753;28;20036;-73
2022/10/08 10:44:54;;;;;;;23.73;22.52;;;;;;;14.65;58.77;102115.94;5008021;28;20121;-74
2022/10/08 10:47:23;;;;;;;25.40;23.25;;;;;;;14.65;58.87;102105.88;5006548;28;20030;-74
2022/10/08 10:49:50;;;;;;;23.45;21.98;;;;;;;14.66;58.99;102114.84;5003800;28;20438;-74
2022/10/08 10:52:36;;;;;;;25.25;23.67;;;;;;;14.67;58.93;102120.06;5006287;28;20034;-74
2022/10/08 10:55:26;;;;;;;24.50;23.05;;;;;;;14.69;58.96;102125.25;5007315;28;20493;-73
2022/10/08 10:58:18;;;;;;;24.27;22.88;;;;;;;14.67;58.88;102114.63;5008441;28;20061;-76
2022/10/08 11:00:49;;;;;;;25.27;23.77;;;;;;;14.70;58.85;102129.66;5004733;28;20205;-74
2022/10/08 11:03:53;;;;;;;24.73;23.00;;;;;;;14.70;59.06;102135.91;5006358;28;20046;-73
2022/10/08 11:06:37;;;;;;;23.92;22.73;;;;;;;14.72;58.86;102138.41;5004821;28;20061;-74
2022/10/08 11:09:21;;;;;;;24.20;23.00;;;;;;;14.72;58.87;102135.69;5004866;28;20038;-74
2022/10/08 11:12:11;;;;;;;25.65;23.92;;;;;;;14.71;58.88;102129.41;4999862;28;20034;-74
2022/10/08 11:14:48;;;;;;;26.08;24.40;;;;;;;14.73;58.65;102133.78;5006421;28;20038;-75
2022/10/08 11:17:40;;;;;;;24.50;22.95;;;;;;;14.74;59.13;102128.13;5005330;28;20088;-74
2022/10/08 11:20:09;;;;;;;26.20;24.17;;;;;;;14.75;58.82;102126.22;4999211;28;20050;-73
2022/10/08 11:22:53;;;;;;;25.98;24.40;;;;;;;14.76;58.86;102141.47;5005685;28;20034;-73
2022/10/08 11:25:36;;;;;;;25.45;23.75;;;;;;;14.76;58.53;102139.56;5002465;28;20030;-75